createdAt,value
2023-01-29T00:01:49.555Z,3.28
2023-01-29T00:04:16.383Z,3.34
2023-01-29T00:06:43.994Z,3.27
2023-01-29T00:09:11.463Z,3.25
2023-01-29T00:11:38.050Z,3.24
2023-01-29T00:14:04.910Z,3.28
2023-01-29T00:16:31.621Z,3.30
2023-01-29T00:18:58.330Z,3.36
2023-01-29T00:21:24.910Z,3.31
2023-01-29T00:23:51.506Z,3.29
2023-01-29T00:26:18.243Z,3.25
2023-01-29T00:28:44.911Z,3.24
2023-01-29T00:31:14.511Z,3.34
2023-01-29T00:33:41.364Z,3.31
2023-01-29T00:36:11.191Z,3.22
2023-01-29T00:38:38.653Z,3.24
2023-01-29T00:41:28.537Z,3.16
2023-01-29T00:44:13.924Z,3.06
2023-01-29T00:46:40.717Z,3.05
2023-01-29T00:49:08.403Z,3.07
2023-01-29T00:51:36.746Z,3.03
2023-01-29T00:54:06.827Z,3.11
2023-01-29T00:56:36.016Z,3.04
2023-01-29T00:59:03.580Z,3.08
2023-01-29T01:01:49.073Z,3.08
2023-01-29T01:04:15.673Z,3.15
2023-01-29T01:06:43.533Z,3.22
2023-01-29T01:09:29.410Z,3.25
2023-01-29T01:11:56.086Z,3.17
2023-01-29T01:14:22.695Z,3.18
2023-01-29T01:16:49.530Z,3.12
2023-01-29T01:19:16.528Z,3.21
2023-01-29T01:21:48.216Z,3.23
2023-01-29T01:24:15.364Z,3.19
2023-01-29T01:26:42.097Z,3.24
2023-01-29T01:29:09.211Z,3.29
2023-01-29T01:31:35.943Z,3.21
2023-01-29T01:34:02.567Z,3.27
2023-01-29T01:36:29.229Z,3.28
2023-01-29T01:38:55.812Z,3.25
2023-01-29T01:41:24.135Z,3.20
2023-01-29T01:44:02.415Z,3.18
2023-01-29T01:46:31.262Z,3.18
2023-01-29T01:49:11.727Z,3.23
2023-01-29T01:51:43.193Z,3.25
2023-01-29T01:54:15.725Z,3.19
2023-01-29T01:56:47.014Z,3.17
2023-01-29T01:59:17.659Z,3.22
2023-01-29T02:01:51.330Z,3.21
2023-01-29T02:04:41.204Z,3.25
2023-01-29T02:07:30.631Z,3.20
2023-01-29T02:10:08.771Z,3.16
2023-01-29T02:12:37.038Z,3.20
2023-01-29T02:15:04.459Z,3.22
2023-01-29T02:17:32.225Z,3.20
2023-01-29T02:20:14.108Z,3.25
2023-01-29T02:23:09.954Z,3.28
2023-01-29T02:25:58.058Z,3.21
2023-01-29T02:28:45.444Z,3.25
2023-01-29T02:31:30.319Z,3.23
2023-01-29T02:34:05.999Z,3.21
2023-01-29T02:36:50.620Z,3.16
2023-01-29T02:39:20.522Z,3.10
2023-01-29T02:42:08.028Z,3.10
2023-01-29T02:44:40.559Z,3.16
2023-01-29T02:47:09.983Z,3.16
2023-01-29T02:49:45.262Z,3.10
2023-01-29T02:52:33.243Z,3.04
2023-01-29T02:55:08.843Z,3.09
2023-01-29T02:57:39.200Z,3.07
2023-01-29T03:00:09.184Z,3.13
2023-01-29T03:02:47.944Z,3.11
2023-01-29T03:05:25.464Z,2.96
2023-01-29T03:07:58.679Z,3.01
2023-01-29T03:10:31.941Z,2.99
2023-01-29T03:13:06.011Z,2.92
2023-01-29T03:15:42.406Z,3.00
2023-01-29T03:18:13.877Z,2.97
2023-01-29T03:20:54.258Z,2.88
2023-01-29T03:23:53.127Z,2.96
2023-01-29T03:26:41.650Z,2.90
2023-01-29T03:29:28.492Z,2.68
2023-01-29T03:32:08.854Z,2.72
2023-01-29T03:34:42.268Z,2.66
2023-01-29T03:37:20.280Z,2.63
2023-01-29T03:39:47.059Z,2.61
2023-01-29T03:42:33.932Z,2.62
2023-01-29T03:45:24.480Z,2.61
2023-01-29T03:48:06.698Z,2.54
2023-01-29T03:50:57.815Z,2.57
2023-01-29T03:53:36.960Z,2.58
2023-01-29T03:56:35.673Z,2.51
2023-01-29T03:59:12.154Z,2.48
2023-01-29T04:01:47.702Z,2.53
2023-01-29T04:04:32.095Z,2.49
2023-01-29T04:07:08.843Z,2.55
2023-01-29T04:09:43.914Z,2.54
2023-01-29T04:12:14.938Z,2.52
2023-01-29T04:14:41.702Z,2.45
2023-01-29T04:17:13.130Z,2.45
2023-01-29T04:19:40.254Z,2.45
2023-01-29T04:22:23.620Z,2.49
2023-01-29T04:24:51.260Z,2.39
2023-01-29T04:27:29.896Z,2.30
2023-01-29T04:30:15.793Z,2.37
2023-01-29T04:33:14.724Z,2.31
2023-01-29T04:35:51.501Z,2.31
2023-01-29T04:38:29.907Z,2.24
2023-01-29T04:41:08.515Z,2.27
2023-01-29T04:43:53.379Z,2.20
2023-01-29T04:46:44.347Z,2.13
2023-01-29T04:49:18.720Z,2.17
2023-01-29T04:51:48.481Z,2.21
2023-01-29T04:54:45.019Z,2.17
2023-01-29T04:57:11.647Z,2.12
2023-01-29T05:00:13.855Z,1.93
2023-01-29T05:02:44.897Z,1.99
2023-01-29T05:05:14.370Z,2.06
2023-01-29T05:07:44.071Z,1.95
2023-01-29T05:10:13.240Z,2.06
2023-01-29T05:12:42.915Z,1.85
2023-01-29T05:15:14.429Z,1.73
2023-01-29T05:17:41.097Z,1.81
2023-01-29T05:20:10.857Z,1.79
2023-01-29T05:22:39.761Z,1.87
2023-01-29T05:25:23.465Z,1.91
2023-01-29T05:28:10.446Z,2.04
2023-01-29T05:30:39.444Z,2.07
2023-01-29T05:33:14.208Z,2.03
2023-01-29T05:35:40.899Z,2.13
2023-01-29T05:38:08.042Z,2.22
2023-01-29T05:40:34.830Z,2.19
2023-01-29T05:43:01.584Z,2.19
2023-01-29T05:45:28.272Z,2.24
2023-01-29T05:48:00.715Z,2.23
2023-01-29T05:50:27.990Z,2.28
2023-01-29T05:52:59.433Z,2.19
2023-01-29T05:55:26.675Z,2.22
2023-01-29T05:57:53.352Z,2.17
2023-01-29T06:00:20.125Z,2.19
2023-01-29T06:02:46.761Z,2.18
2023-01-29T06:05:13.405Z,2.23
2023-01-29T06:07:45.176Z,2.25
2023-01-29T06:10:16.456Z,2.19
2023-01-29T06:12:43.895Z,2.21
2023-01-29T06:15:12.029Z,2.14
2023-01-29T06:17:38.605Z,2.14
2023-01-29T06:20:06.051Z,2.17
2023-01-29T06:22:33.448Z,2.16
2023-01-29T06:25:00.319Z,2.17
2023-01-29T06:27:27.062Z,2.22
2023-01-29T06:29:53.751Z,2.19
2023-01-29T06:32:20.371Z,2.10
2023-01-29T06:34:49.452Z,2.10
2023-01-29T06:37:16.430Z,2.17
2023-01-29T06:39:43.106Z,2.18
2023-01-29T06:42:10.161Z,2.22
2023-01-29T06:44:36.982Z,2.11
2023-01-29T06:47:03.629Z,2.06
2023-01-29T06:49:30.295Z,1.78
2023-01-29T06:51:57.451Z,1.56
2023-01-29T06:54:24.062Z,1.45
2023-01-29T06:56:52.092Z,1.37
2023-01-29T06:59:18.715Z,1.29
2023-01-29T07:01:45.419Z,1.26
2023-01-29T07:04:12.127Z,1.16
2023-01-29T07:06:38.791Z,1.09
2023-01-29T07:09:05.469Z,1.03
2023-01-29T07:11:33.994Z,0.89
2023-01-29T07:14:00.626Z,0.81
2023-01-29T07:16:27.444Z,0.88
2023-01-29T07:18:54.154Z,0.92
2023-01-29T07:21:20.754Z,0.98
2023-01-29T07:23:47.325Z,0.96
2023-01-29T07:26:13.897Z,1.01
2023-01-29T07:28:41.238Z,1.10
2023-01-29T07:31:11.509Z,1.11
2023-01-29T07:33:38.119Z,1.12
2023-01-29T07:36:09.248Z,1.11
2023-01-29T07:38:35.884Z,1.09
2023-01-29T07:41:03.337Z,1.02
2023-01-29T07:43:30.304Z,1.02
2023-01-29T07:45:57.096Z,1.19
2023-01-29T07:48:23.746Z,1.31
2023-01-29T07:50:56.978Z,1.35
2023-01-29T07:53:23.687Z,1.35
2023-01-29T07:55:50.517Z,1.33
2023-01-29T07:58:17.198Z,1.35
2023-01-29T08:00:44.357Z,1.39
2023-01-29T08:03:13.892Z,1.30
2023-01-29T08:05:40.475Z,1.26
2023-01-29T08:08:07.971Z,1.36
2023-01-29T08:10:39.227Z,1.46
2023-01-29T08:13:06.941Z,1.47
2023-01-29T08:15:34.077Z,1.49
2023-01-29T08:18:04.362Z,1.61
2023-01-29T08:20:31.014Z,1.68
2023-01-29T08:23:06.432Z,1.58
2023-01-29T08:25:34.178Z,1.66
2023-01-29T08:28:01.477Z,1.62
2023-01-29T08:30:31.180Z,1.61
2023-01-29T08:32:57.920Z,1.69
2023-01-29T08:35:25.178Z,1.74
2023-01-29T08:38:03.473Z,1.91
2023-01-29T08:40:32.826Z,1.95
2023-01-29T08:43:02.295Z,1.86
2023-01-29T08:45:30.525Z,1.76
2023-01-29T08:47:57.157Z,1.77
2023-01-29T08:50:23.873Z,1.85
2023-01-29T08:52:51.223Z,1.86
2023-01-29T08:55:18.317Z,1.88
2023-01-29T08:57:45.181Z,2.01
2023-01-29T09:00:12.507Z,2.10
2023-01-29T09:02:39.222Z,2.05
2023-01-29T09:05:06.434Z,2.15
2023-01-29T09:07:33.393Z,2.24
2023-01-29T09:09:59.972Z,2.30
2023-01-29T09:12:26.594Z,2.41
2023-01-29T09:14:53.219Z,2.40
2023-01-29T09:17:19.875Z,2.38
2023-01-29T09:19:46.537Z,2.42
2023-01-29T09:22:13.231Z,2.46
2023-01-29T09:24:39.893Z,2.40
2023-01-29T09:27:06.792Z,2.38
2023-01-29T09:29:35.748Z,2.39
2023-01-29T09:32:04.217Z,2.49
2023-01-29T09:34:30.780Z,2.34
2023-01-29T09:36:57.389Z,2.32
2023-01-29T09:39:24.126Z,2.29
2023-01-29T09:42:06.270Z,2.20
2023-01-29T09:44:47.081Z,2.20
2023-01-29T09:47:17.075Z,2.13
2023-01-29T09:50:05.695Z,2.13
2023-01-29T09:52:37.886Z,2.14
2023-01-29T09:55:25.042Z,2.13
2023-01-29T09:58:06.281Z,1.96
2023-01-29T10:00:38.752Z,1.73
2023-01-29T10:03:14.321Z,1.75
2023-01-29T10:05:58.809Z,1.83
2023-01-29T10:08:52.724Z,1.88
2023-01-29T10:11:58.008Z,1.96
2023-01-29T10:14:39.790Z,2.04
2023-01-29T10:17:30.536Z,2.08
2023-01-29T10:19:57.147Z,2.15
2023-01-29T10:22:35.779Z,2.22
2023-01-29T10:25:11.586Z,2.32
2023-01-29T10:27:41.245Z,2.37
2023-01-29T10:30:21.223Z,2.14
2023-01-29T10:32:49.977Z,2.12
2023-01-29T10:35:28.149Z,2.09
2023-01-29T10:37:55.083Z,2.20
2023-01-29T10:40:37.146Z,2.22
2023-01-29T10:43:11.881Z,2.35
2023-01-29T10:46:01.195Z,2.36
2023-01-29T10:48:36.647Z,2.44
2023-01-29T10:51:21.847Z,2.19
2023-01-29T10:54:05.218Z,2.13
2023-01-29T10:56:59.486Z,2.09
2023-01-29T10:59:29.116Z,2.13
2023-01-29T11:02:00.291Z,2.11
2023-01-29T11:04:28.722Z,1.98
2023-01-29T11:06:55.354Z,2.02
2023-01-29T11:09:29.277Z,2.13
2023-01-29T11:12:09.644Z,2.08
2023-01-29T11:14:54.195Z,2.04
2023-01-29T11:17:23.617Z,2.12
2023-01-29T11:19:52.403Z,2.17
2023-01-29T11:22:21.801Z,2.16
2023-01-29T11:25:25.369Z,2.27
2023-01-29T11:27:58.324Z,2.31
2023-01-29T11:30:38.357Z,2.12
2023-01-29T11:33:21.936Z,2.21
2023-01-29T11:35:48.573Z,2.18
2023-01-29T11:38:26.989Z,2.37
2023-01-29T11:41:04.596Z,2.43
2023-01-29T11:43:32.292Z,2.51
2023-01-29T11:46:03.899Z,2.49
2023-01-29T11:48:51.451Z,2.53
2023-01-29T11:51:29.301Z,2.58
2023-01-29T11:54:05.353Z,2.39
2023-01-29T11:56:41.868Z,2.41
2023-01-29T11:59:24.315Z,2.37
2023-01-29T12:01:50.948Z,2.37
2023-01-29T12:04:25.804Z,2.48
2023-01-29T12:06:54.513Z,2.60
2023-01-29T12:09:24.660Z,2.60
2023-01-29T12:11:52.646Z,2.69
2023-01-29T12:14:36.916Z,2.73
2023-01-29T12:17:13.944Z,2.84
2023-01-29T12:19:43.831Z,2.93
2023-01-29T12:22:36.356Z,2.98
2023-01-29T12:25:21.392Z,2.96
2023-01-29T12:27:54.008Z,2.70
2023-01-29T12:30:30.063Z,2.68
2023-01-29T12:33:36.583Z,2.82
2023-01-29T12:36:14.409Z,2.78
2023-01-29T12:38:43.756Z,2.96
2023-01-29T12:41:30.230Z,3.10
2023-01-29T12:44:03.017Z,3.23
2023-01-29T12:46:34.742Z,3.31
2023-01-29T12:49:04.859Z,3.25
2023-01-29T12:51:38.720Z,3.24
2023-01-29T12:54:09.762Z,3.25
2023-01-29T12:56:41.212Z,3.27
2023-01-29T12:59:22.665Z,3.37
2023-01-29T13:01:55.029Z,3.24
2023-01-29T13:04:45.553Z,3.28
2023-01-29T13:07:31.409Z,3.37
2023-01-29T13:10:07.438Z,3.39
2023-01-29T13:12:35.430Z,3.52
2023-01-29T13:15:15.465Z,3.59
2023-01-29T13:17:57.931Z,3.67
2023-01-29T13:20:30.331Z,3.71
2023-01-29T13:23:02.891Z,3.69
2023-01-29T13:25:29.459Z,3.58
2023-01-29T13:27:56.161Z,3.58
2023-01-29T13:30:29.079Z,3.32
2023-01-29T13:33:09.439Z,3.56
2023-01-29T13:35:43.548Z,3.61
2023-01-29T13:38:29.658Z,3.77
2023-01-29T13:41:05.221Z,3.69
2023-01-29T13:43:37.201Z,3.83
2023-01-29T13:46:17.808Z,3.92
2023-01-29T13:48:49.548Z,3.81
2023-01-29T13:51:22.085Z,3.86
2023-01-29T13:54:03.989Z,3.86
2023-01-29T13:56:42.128Z,3.90
2023-01-29T13:59:22.493Z,3.92
2023-01-29T14:01:49.029Z,3.86
2023-01-29T14:04:31.085Z,3.78
2023-01-29T14:07:06.540Z,3.78
2023-01-29T14:09:34.814Z,3.89
2023-01-29T14:12:01.472Z,3.85
2023-01-29T14:14:56.596Z,3.77
2023-01-29T14:17:27.213Z,3.59
2023-01-29T14:20:03.808Z,3.57
2023-01-29T14:22:33.798Z,3.57
2023-01-29T14:25:05.037Z,3.50
2023-01-29T14:27:32.877Z,3.45
2023-01-29T14:30:17.765Z,3.53
2023-01-29T14:32:49.155Z,3.48
2023-01-29T14:35:20.216Z,3.54
2023-01-29T14:37:52.605Z,3.50
2023-01-29T14:40:26.110Z,3.42
2023-01-29T14:43:06.320Z,3.39
2023-01-29T14:45:38.311Z,3.45
2023-01-29T14:48:10.882Z,3.46
2023-01-29T14:50:37.852Z,3.53
2023-01-29T14:53:31.318Z,3.50
2023-01-29T14:56:12.571Z,3.46
2023-01-29T14:58:45.131Z,3.51
2023-01-29T15:01:32.561Z,3.52
2023-01-29T15:04:15.392Z,3.39
2023-01-29T15:06:46.913Z,3.23
2023-01-29T15:09:22.087Z,3.25
2023-01-29T15:12:44.102Z,3.24
2023-01-29T15:15:42.455Z,3.16
2023-01-29T15:18:15.575Z,3.16
2023-01-29T15:20:44.127Z,3.06
2023-01-29T15:23:34.207Z,3.13
2023-01-29T15:26:03.720Z,3.09
2023-01-29T15:28:32.252Z,3.12
2023-01-29T15:31:01.736Z,3.14
2023-01-29T15:33:28.741Z,3.14
2023-01-29T15:36:08.911Z,3.17
2023-01-29T15:38:36.007Z,3.22
2023-01-29T15:41:15.081Z,3.23
2023-01-29T15:43:49.984Z,3.16
2023-01-29T15:46:21.024Z,3.18
2023-01-29T15:48:49.346Z,3.07
2023-01-29T15:51:18.637Z,3.05
2023-01-29T15:53:59.375Z,3.02
2023-01-29T15:56:29.488Z,2.96
2023-01-29T15:58:58.976Z,2.91
2023-01-29T16:01:28.870Z,2.85
2023-01-29T16:03:59.384Z,2.86
2023-01-29T16:06:26.940Z,2.87
2023-01-29T16:08:55.408Z,2.88
2023-01-29T16:11:22.340Z,2.86
2023-01-29T16:13:50.646Z,2.85
2023-01-29T16:16:25.034Z,2.85
2023-01-29T16:18:59.971Z,2.82
2023-01-29T16:21:35.581Z,2.80
2023-01-29T16:24:14.098Z,2.69
2023-01-29T16:26:47.208Z,2.74
2023-01-29T16:29:23.863Z,2.77
2023-01-29T16:32:00.643Z,2.76
2023-01-29T16:34:37.849Z,2.75
2023-01-29T16:37:27.338Z,2.78
2023-01-29T16:39:54.698Z,2.91
2023-01-29T16:42:43.256Z,2.61
2023-01-29T16:45:28.079Z,2.66
2023-01-29T16:48:02.581Z,2.58
2023-01-29T16:50:40.678Z,2.58
2023-01-29T16:53:23.327Z,2.54
2023-01-29T16:55:52.572Z,2.54
2023-01-29T16:58:21.356Z,2.55
2023-01-29T17:00:56.599Z,2.63
2023-01-29T17:03:25.827Z,2.60
2023-01-29T17:05:53.076Z,2.71
2023-01-29T17:08:34.457Z,2.74
2023-01-29T17:11:01.942Z,2.72
2023-01-29T17:13:44.102Z,2.77
2023-01-29T17:16:26.386Z,2.74
2023-01-29T17:18:53.335Z,2.67
2023-01-29T17:21:20.365Z,2.60
2023-01-29T17:23:46.957Z,2.57
2023-01-29T17:26:15.130Z,2.50
2023-01-29T17:28:42.821Z,2.51
2023-01-29T17:31:09.815Z,2.52
2023-01-29T17:33:41.180Z,2.56
2023-01-29T17:36:12.492Z,2.58
2023-01-29T17:38:39.652Z,2.59
2023-01-29T17:41:12.368Z,2.60
2023-01-29T17:43:39.142Z,2.54
2023-01-29T17:46:06.136Z,2.47
2023-01-29T17:48:32.817Z,2.43
2023-01-29T17:51:03.600Z,2.48
2023-01-29T17:53:44.320Z,2.42
2023-01-29T17:56:18.116Z,2.46
2023-01-29T17:58:44.936Z,2.49
2023-01-29T18:01:12.160Z,2.54
2023-01-29T18:03:38.760Z,2.58
2023-01-29T18:06:08.710Z,2.50
2023-01-29T18:08:38.352Z,2.53
2023-01-29T18:11:05.599Z,2.53
2023-01-29T18:13:32.547Z,2.42
2023-01-29T18:15:59.442Z,2.25
2023-01-29T18:18:26.261Z,2.25
2023-01-29T18:20:52.889Z,2.31
2023-01-29T18:23:19.759Z,2.38
2023-01-29T18:25:46.590Z,2.39
2023-01-29T18:28:17.128Z,2.46
2023-01-29T18:30:47.134Z,2.43
2023-01-29T18:33:15.023Z,2.37
2023-01-29T18:35:43.201Z,2.39
2023-01-29T18:38:09.908Z,2.44
2023-01-29T18:40:36.615Z,2.47
2023-01-29T18:43:04.355Z,2.52
2023-01-29T18:45:31.320Z,2.37
2023-01-29T18:47:58.030Z,2.34
2023-01-29T18:50:26.321Z,2.44
2023-01-29T18:52:56.259Z,2.54
2023-01-29T18:55:23.539Z,2.58
2023-01-29T18:58:28.125Z,2.57
2023-01-29T19:00:41.003Z,2.60
2023-01-29T19:03:07.661Z,2.56
2023-01-29T19:05:34.393Z,2.51
2023-01-29T19:08:01.940Z,2.43
2023-01-29T19:10:28.736Z,2.58
2023-01-29T19:12:55.410Z,2.53
2023-01-29T19:15:22.952Z,2.53
2023-01-29T19:17:53.071Z,2.56
2023-01-29T19:20:20.370Z,2.60
2023-01-29T19:22:47.096Z,2.60
2023-01-29T19:25:13.994Z,2.57
2023-01-29T19:27:40.837Z,2.59
2023-01-29T19:30:10.312Z,2.60
2023-01-29T19:32:36.942Z,2.57
2023-01-29T19:35:03.914Z,2.53
2023-01-29T19:37:30.943Z,2.57
2023-01-29T19:39:58.090Z,2.53
2023-01-29T19:42:24.787Z,2.65
2023-01-29T19:44:52.630Z,2.61
2023-01-29T19:47:19.334Z,2.69
2023-01-29T19:49:46.122Z,2.59
2023-01-29T19:52:49.822Z,2.61
2023-01-29T19:55:18.810Z,2.41
2023-01-29T19:57:46.074Z,2.54
2023-01-29T20:00:15.658Z,2.54
2023-01-29T20:02:42.313Z,2.63
2023-01-29T20:05:12.062Z,2.57
2023-01-29T20:07:41.197Z,2.55
2023-01-29T20:10:11.394Z,2.48
2023-01-29T20:12:38.492Z,2.46
2023-01-29T20:15:05.500Z,2.42
2023-01-29T20:17:32.269Z,2.47
2023-01-29T20:19:58.957Z,2.43
2023-01-29T20:22:26.791Z,2.49
2023-01-29T20:24:54.100Z,2.51
2023-01-29T20:27:20.729Z,2.46
2023-01-29T20:29:47.336Z,2.44
2023-01-29T20:32:14.715Z,2.45
2023-01-29T20:34:41.632Z,2.52
2023-01-29T20:37:08.197Z,2.48
2023-01-29T20:39:34.816Z,2.48
2023-01-29T20:42:01.857Z,2.40
2023-01-29T20:44:28.472Z,2.38
2023-01-29T20:46:55.129Z,2.38
2023-01-29T20:49:21.860Z,2.39
2023-01-29T20:51:48.433Z,2.37
2023-01-29T20:54:15.165Z,2.34
2023-01-29T20:56:43.558Z,2.37
2023-01-29T20:59:11.176Z,2.32
2023-01-29T21:01:37.917Z,2.30
2023-01-29T21:04:04.519Z,2.31
2023-01-29T21:06:31.398Z,2.31
2023-01-29T21:08:58.066Z,2.40
2023-01-29T21:11:24.733Z,2.42
2023-01-29T21:13:54.859Z,2.38
2023-01-29T21:16:21.480Z,2.46
2023-01-29T21:18:48.069Z,2.37
2023-01-29T21:21:14.686Z,2.41
2023-01-29T21:23:41.317Z,2.40
2023-01-29T21:26:08.083Z,2.34
2023-01-29T21:28:34.786Z,2.40
2023-01-29T21:31:14.487Z,2.39
2023-01-29T21:33:41.186Z,2.45
2023-01-29T21:36:08.583Z,2.39
2023-01-29T21:38:35.211Z,2.39
2023-01-29T21:41:03.278Z,2.40
2023-01-29T21:43:30.342Z,2.41
2023-01-29T21:45:58.808Z,2.41
2023-01-29T21:48:26.009Z,2.36
2023-01-29T21:50:52.856Z,2.48
2023-01-29T21:53:19.936Z,2.43
2023-01-29T21:55:47.136Z,2.42
2023-01-29T21:58:14.633Z,2.42
2023-01-29T22:00:41.467Z,2.41
2023-01-29T22:03:08.294Z,2.43
2023-01-29T22:05:35.018Z,2.41
2023-01-29T22:08:01.664Z,2.40
2023-01-29T22:10:28.889Z,2.39
2023-01-29T22:12:55.810Z,2.41
2023-01-29T22:15:24.023Z,2.44
2023-01-29T22:17:51.050Z,2.41
2023-01-29T22:20:19.025Z,2.46
2023-01-29T22:22:45.887Z,2.33
2023-01-29T22:25:12.741Z,2.33
2023-01-29T22:27:39.345Z,2.24
2023-01-29T22:30:06.638Z,2.25
2023-01-29T22:32:33.378Z,2.22
2023-01-29T22:34:59.998Z,2.14
2023-01-29T22:37:26.693Z,2.18
2023-01-29T22:39:53.271Z,2.24
2023-01-29T22:42:20.828Z,2.28
2023-01-29T22:44:48.558Z,2.36
2023-01-29T22:47:15.568Z,2.29
2023-01-29T22:49:44.589Z,2.43
2023-01-29T22:52:11.593Z,2.36
2023-01-29T22:54:42.661Z,2.42
2023-01-29T22:57:12.027Z,2.38
2023-01-29T22:59:38.825Z,2.45
2023-01-29T23:02:06.414Z,2.42
2023-01-29T23:04:33.432Z,2.56
2023-01-29T23:07:00.110Z,2.57
2023-01-29T23:09:26.756Z,2.48
2023-01-29T23:11:53.405Z,2.45
2023-01-29T23:14:20.061Z,2.48
2023-01-29T23:16:46.710Z,2.56
2023-01-29T23:19:13.344Z,2.55
2023-01-29T23:21:39.990Z,2.51
2023-01-29T23:24:08.061Z,2.50
2023-01-29T23:26:53.613Z,2.52
2023-01-29T23:29:20.379Z,2.55
2023-01-29T23:31:47.032Z,2.51
2023-01-29T23:34:14.294Z,2.54
2023-01-29T23:36:41.524Z,2.60
2023-01-29T23:39:08.678Z,2.58
2023-01-29T23:41:35.515Z,2.66
2023-01-29T23:44:02.150Z,2.66
2023-01-29T23:46:28.789Z,2.62
2023-01-29T23:48:55.466Z,2.61
2023-01-29T23:51:22.172Z,2.61
2023-01-29T23:53:48.806Z,2.65
2023-01-29T23:56:15.399Z,2.69
2023-01-29T23:58:42.101Z,2.60
